Archdale, North Carolina
Current Conditions -  °F | °C
As of 4:54 AM on Friday 31 Oct 2014 (Local Time) from KGSO Reporting Station
Scattered Clouds Scattered Clouds  
Wind Chill: 38°   Ceiling: Unl
Heat Index: 41°   Visibility: 10mi
Dew Point: 37°   Wind: 5mph
Humidity: 86%   Direction: 20°NNE
Pressure: 29.97"   Gusts: NA
Location:  35.9136°N, 79.9465°W
Report Text: KGSO 310854Z 02004KT 10SM FEW060 SCT250 05/03 A2997 RMK AO2 SLP147 T00500028 58006
Loading
Personal Weather Stations






























Interactive Weather Map
Tropical Storm Tracking
New forecast layout! Learn more

10-Day Weather Forecast

Advertisements
Track Severe Weather on mobile